Capitol Logistics 76




KCVG
Cincinnati/Northern Kentucky International Airport
Covington, Kentucky
PANC
Ted Stevens Anchorage International Airport
Anchorage, Alaska

Activity Log

Date Flight Route Aircraft Duration
04/17/2021 CPX76 JBNCH5 MIE OXI BAE J89 DLH J538 VBI YQD PETMA Q963 TULAG YOJ YQH J515 YXY COHIL NCA11 REMBY WITTI4 B744 5h 23m

Route Details

Aircraft Information
Primary: Boeing 747-400BCF
Backup: Boeing 767-300BDSF
Route Data
Distance: 2700nm
Duration: 6h 28m
Recm'd Route: JBNCH5 MIE OXI BAE J89 DLH J538 VBI YQD PETMA Q963 TULAG YOJ YQH J515 YXY COHIL NCA11 REMBY WITTI4
Origin Wx: KCVG 180152Z 21003KT 10SM CLR 07/04 A2993 RMK AO2 SLP133 T00720039
Dest. Wx: PANC 180153Z 30003KT 10SM SCT200 12/M03 A3032 RMK AO2 SLP270 T01171033 VISNO N $
Notes: